createdAt,value
2022-12-27T00:01:56.916Z,8.36
2022-12-27T00:04:34.368Z,8.37
2022-12-27T00:14:19.343Z,8.26
2022-12-27T00:16:59.391Z,8.25
2022-12-27T00:19:34.971Z,8.28
2022-12-27T00:22:09.642Z,8.29
2022-12-27T00:24:42.613Z,8.30
2022-12-27T00:27:16.392Z,8.28
2022-12-27T00:29:49.697Z,8.25
2022-12-27T00:42:40.312Z,8.21
2022-12-27T00:45:20.348Z,8.19
2022-12-27T00:47:53.616Z,8.16
2022-12-27T00:50:27.432Z,8.15
2022-12-27T00:53:00.886Z,8.15
2022-12-27T01:09:16.347Z,8.11
2022-12-27T01:11:49.641Z,8.09
2022-12-27T01:14:23.402Z,8.11
2022-12-27T01:16:56.626Z,8.11
2022-12-27T01:19:30.333Z,8.14
2022-12-27T01:22:04.761Z,8.16
2022-12-27T01:24:41.727Z,8.13
2022-12-27T01:34:31.370Z,7.99
2022-12-27T01:37:12.339Z,8.01
2022-12-27T01:39:47.584Z,8.01
2022-12-27T01:42:23.397Z,8.01
2022-12-27T01:44:57.892Z,8.00
2022-12-27T01:47:42.395Z,8.01
2022-12-27T02:00:56.422Z,7.88
2022-12-27T02:03:45.847Z,7.87
2022-12-27T02:06:28.328Z,7.82
2022-12-27T02:09:10.235Z,7.80
2022-12-27T02:11:55.349Z,7.77
2022-12-27T02:14:33.468Z,7.72
2022-12-27T02:28:03.298Z,7.52
2022-12-27T02:30:46.358Z,7.53
2022-12-27T02:33:29.476Z,7.51
2022-12-27T02:36:17.357Z,7.49
2022-12-27T02:38:56.891Z,7.45
2022-12-27T02:41:41.385Z,7.44
2022-12-27T02:44:15.101Z,7.42
2022-12-27T02:54:25.370Z,7.41
2022-12-27T02:57:19.688Z,7.39
2022-12-27T03:00:17.405Z,7.34
2022-12-27T03:03:27.241Z,7.31
2022-12-27T03:06:53.338Z,7.28
2022-12-27T03:10:07.807Z,7.24
2022-12-27T03:23:13.159Z,7.17
2022-12-27T03:26:00.665Z,7.16
2022-12-27T03:28:37.128Z,7.13
2022-12-27T03:31:27.335Z,7.11
2022-12-27T03:34:09.655Z,7.08
2022-12-27T03:47:49.281Z,6.88
2022-12-27T03:50:42.307Z,6.86
2022-12-27T03:53:24.880Z,6.84
2022-12-27T03:56:05.306Z,6.83
2022-12-27T03:58:38.607Z,6.78
2022-12-27T04:01:12.418Z,6.76
2022-12-27T04:03:45.589Z,6.74
2022-12-27T04:16:37.331Z,6.64
2022-12-27T04:19:18.384Z,6.59
2022-12-27T04:21:51.572Z,6.55
2022-12-27T04:24:25.310Z,6.57
2022-12-27T04:26:58.597Z,6.50
2022-12-27T04:29:33.996Z,6.53
2022-12-27T04:42:46.392Z,6.37
2022-12-27T04:45:20.065Z,6.36
2022-12-27T04:47:53.340Z,6.35
2022-12-27T04:50:30.359Z,6.33
2022-12-27T04:53:16.304Z,6.32
2022-12-27T05:09:53.276Z,6.15
2022-12-27T05:12:33.357Z,6.12
2022-12-27T05:15:08.675Z,6.12
2022-12-27T05:17:42.320Z,6.11
2022-12-27T05:20:15.833Z,6.06
2022-12-27T05:22:49.370Z,6.05
2022-12-27T05:35:47.316Z,5.90
2022-12-27T05:38:20.543Z,5.89
2022-12-27T05:40:54.266Z,5.84
2022-12-27T05:43:29.178Z,5.81
2022-12-27T05:46:08.273Z,5.76
2022-12-27T05:48:41.904Z,5.73
2022-12-27T06:01:41.449Z,5.56
2022-12-27T06:04:21.291Z,5.56
2022-12-27T06:06:54.552Z,5.58
2022-12-27T06:09:28.335Z,5.55
2022-12-27T06:12:01.571Z,5.56
2022-12-27T06:14:35.324Z,5.54
2022-12-27T06:28:22.302Z,5.46
2022-12-27T06:30:57.640Z,5.40
2022-12-27T06:33:32.275Z,5.38
2022-12-27T06:36:07.702Z,5.36
2022-12-27T06:38:42.288Z,5.35
2022-12-27T06:41:18.721Z,5.33
2022-12-27T06:44:04.310Z,5.32
2022-12-27T06:57:14.263Z,5.30
2022-12-27T06:59:53.842Z,5.30
2022-12-27T07:02:34.409Z,5.29
2022-12-27T07:05:08.437Z,5.28
2022-12-27T07:07:41.282Z,5.25
2022-12-27T07:10:14.878Z,5.25
2022-12-27T07:23:05.253Z,5.20
2022-12-27T07:25:45.306Z,5.17
2022-12-27T07:28:18.572Z,5.18
2022-12-27T07:30:52.342Z,5.17
2022-12-27T07:33:25.891Z,5.15
2022-12-27T07:49:41.262Z,5.20
2022-12-27T07:52:19.984Z,5.18
2022-12-27T07:55:00.259Z,5.20
2022-12-27T07:57:33.503Z,5.21
2022-12-27T08:00:07.276Z,5.22
2022-12-27T08:02:40.568Z,5.20
2022-12-27T08:05:16.243Z,5.19
2022-12-27T08:15:22.234Z,5.26
2022-12-27T08:18:02.292Z,5.24
2022-12-27T08:20:37.536Z,5.23
2022-12-27T08:23:11.257Z,5.24
2022-12-27T08:25:48.778Z,5.27
2022-12-27T08:28:29.243Z,5.30
2022-12-27T08:42:08.477Z,5.35
2022-12-27T08:44:41.506Z,5.35
2022-12-27T08:47:15.273Z,5.37
2022-12-27T08:49:48.605Z,5.36
2022-12-27T08:52:22.276Z,5.38
2022-12-27T08:54:55.476Z,5.39
2022-12-27T09:11:18.262Z,5.41
2022-12-27T09:13:51.704Z,5.45
2022-12-27T09:16:28.279Z,5.49
2022-12-27T09:19:03.043Z,5.52
2022-12-27T09:21:39.272Z,5.53
2022-12-27T09:24:13.910Z,5.54
2022-12-27T09:37:04.282Z,5.65
2022-12-27T09:39:44.364Z,5.70
2022-12-27T09:43:02.057Z,5.73
2022-12-27T09:45:44.682Z,5.72
2022-12-27T09:48:33.232Z,5.76
2022-12-27T10:02:14.315Z,5.79
2022-12-27T10:05:19.623Z,5.81
2022-12-27T10:08:22.500Z,5.90
2022-12-27T10:11:16.252Z,5.89
2022-12-27T10:13:59.353Z,5.89
2022-12-27T10:16:51.232Z,5.96
2022-12-27T10:19:41.131Z,6.01
2022-12-27T10:29:27.235Z,6.01
2022-12-27T10:32:00.597Z,6.01
2022-12-27T10:34:34.220Z,6.02
2022-12-27T10:37:14.230Z,6.01
2022-12-27T10:39:54.211Z,6.02
2022-12-27T10:42:45.381Z,6.02
2022-12-27T10:55:50.255Z,6.06
2022-12-27T10:58:46.283Z,6.03
2022-12-27T11:01:25.171Z,6.05
2022-12-27T11:04:21.792Z,6.05
2022-12-27T11:07:12.987Z,6.04
2022-12-27T11:09:54.231Z,6.03
2022-12-27T11:23:10.226Z,6.02
2022-12-27T11:25:54.239Z,6.03
2022-12-27T11:28:42.227Z,6.00
2022-12-27T11:31:27.635Z,5.94
2022-12-27T11:34:14.254Z,5.93
2022-12-27T11:36:53.907Z,5.96
2022-12-27T11:39:50.205Z,5.99
2022-12-27T11:49:42.187Z,6.09
2022-12-27T11:53:02.202Z,6.10
2022-12-27T11:56:09.152Z,6.09
2022-12-27T11:59:30.221Z,6.14
2022-12-27T12:02:38.942Z,6.16
2022-12-27T12:16:30.197Z,6.20
2022-12-27T12:19:34.266Z,6.22
2022-12-27T12:22:44.687Z,6.23
2022-12-27T12:26:19.276Z,6.23
2022-12-27T12:29:17.079Z,6.26
2022-12-27T12:42:53.172Z,6.39
2022-12-27T12:45:59.322Z,6.45
2022-12-27T12:49:01.420Z,6.47
2022-12-27T12:52:21.936Z,6.45
2022-12-27T12:55:22.687Z,6.48
2022-12-27T12:58:25.255Z,6.48
2022-12-27T13:11:48.223Z,6.47
2022-12-27T13:14:51.593Z,6.45
2022-12-27T13:17:44.208Z,6.43
2022-12-27T13:20:49.256Z,6.42
2022-12-27T13:23:48.211Z,6.41
2022-12-27T13:37:22.232Z,6.36
2022-12-27T13:40:41.124Z,6.36
2022-12-27T13:43:54.188Z,6.36
2022-12-27T13:47:07.135Z,6.38
2022-12-27T14:04:40.184Z,6.34
2022-12-27T14:07:51.824Z,6.35
2022-12-27T14:10:43.234Z,6.35
2022-12-27T14:13:23.876Z,6.35
2022-12-27T14:16:35.216Z,6.33
2022-12-27T14:19:52.716Z,6.32
2022-12-27T14:30:08.237Z,6.30
2022-12-27T14:33:26.655Z,6.29
2022-12-27T14:36:40.208Z,6.26
2022-12-27T14:40:04.207Z,6.26
2022-12-27T14:43:40.187Z,6.25
2022-12-27T14:57:09.174Z,6.23
2022-12-27T14:59:56.652Z,6.22
2022-12-27T15:03:21.215Z,6.23
2022-12-27T15:06:09.204Z,6.21
2022-12-27T15:09:07.356Z,6.21
2022-12-27T15:26:08.136Z,6.06
2022-12-27T15:29:23.247Z,6.05
2022-12-27T15:32:11.675Z,6.03
2022-12-27T15:35:10.168Z,6.03
2022-12-27T15:38:12.108Z,6.02
2022-12-27T15:51:37.133Z,5.92
2022-12-27T15:54:53.305Z,5.89
2022-12-27T15:58:03.321Z,5.87
2022-12-27T16:00:45.201Z,5.87
2022-12-27T16:03:35.648Z,5.84
2022-12-27T16:19:45.236Z,5.76
2022-12-27T16:22:36.507Z,5.74
2022-12-27T16:25:35.215Z,5.73
2022-12-27T16:28:24.026Z,5.70
2022-12-27T16:44:59.197Z,5.64
2022-12-27T16:47:56.432Z,5.61
2022-12-27T16:51:06.136Z,5.59
2022-12-27T16:54:04.999Z,5.58
2022-12-27T16:56:45.213Z,5.57
2022-12-27T16:59:56.472Z,5.57
2022-12-27T17:12:52.214Z,5.52
2022-12-27T17:15:35.159Z,5.49
2022-12-27T17:18:27.685Z,5.47
2022-12-27T17:21:13.152Z,5.45
2022-12-27T17:23:50.890Z,5.43
2022-12-27T17:37:22.107Z,5.37
2022-12-27T17:40:23.144Z,5.36
2022-12-27T17:43:15.704Z,5.31
2022-12-27T17:46:15.226Z,5.29
2022-12-27T17:48:51.892Z,5.31
2022-12-27T18:05:24.455Z,5.26
2022-12-27T18:08:04.265Z,5.24
2022-12-27T18:10:45.454Z,5.23
2022-12-27T18:13:23.231Z,5.24
2022-12-27T18:16:04.166Z,5.24
2022-12-27T18:18:38.491Z,5.21
2022-12-27T18:31:35.211Z,5.22
2022-12-27T18:34:30.155Z,5.22
2022-12-27T18:37:08.894Z,5.19
2022-12-27T18:39:58.146Z,5.18
2022-12-27T18:42:36.672Z,5.15
2022-12-27T18:45:29.282Z,5.13
2022-12-27T18:58:41.120Z,5.03
2022-12-27T19:01:38.711Z,5.02
2022-12-27T19:04:30.143Z,5.03
2022-12-27T19:07:11.407Z,5.00
2022-12-27T19:10:00.165Z,4.98
2022-12-27T19:26:31.932Z,4.93
2022-12-27T19:29:13.142Z,4.87
2022-12-27T19:31:56.065Z,4.88
2022-12-27T19:34:47.126Z,4.86
2022-12-27T19:37:25.573Z,4.88
2022-12-27T19:40:06.129Z,4.88
2022-12-27T19:53:23.093Z,4.84
2022-12-27T19:55:56.528Z,4.84
2022-12-27T19:58:33.123Z,4.83
2022-12-27T20:01:06.514Z,4.82
2022-12-27T20:03:40.113Z,4.82
2022-12-27T20:20:09.435Z,4.74
2022-12-27T20:22:43.120Z,4.68
2022-12-27T20:25:16.759Z,4.70
2022-12-27T20:27:50.111Z,4.67
2022-12-27T20:30:23.471Z,4.68
2022-12-27T20:32:57.104Z,4.67
2022-12-27T20:35:32.598Z,4.65
2022-12-27T20:44:56.213Z,4.63
2022-12-27T20:47:29.385Z,4.60
2022-12-27T20:50:03.101Z,4.58
2022-12-27T20:52:38.460Z,4.56
2022-12-27T20:55:13.132Z,4.55
2022-12-27T20:57:46.525Z,4.53
2022-12-27T21:00:22.109Z,4.53
2022-12-27T21:13:34.099Z,4.48
2022-12-27T21:16:11.827Z,4.47
2022-12-27T21:18:54.085Z,4.47
2022-12-27T21:21:28.689Z,4.47
2022-12-27T21:24:03.107Z,4.48
2022-12-27T21:37:57.075Z,4.49
2022-12-27T21:40:30.372Z,4.51
2022-12-27T21:43:04.111Z,4.55
2022-12-27T21:45:37.376Z,4.55
2022-12-27T21:48:11.091Z,4.55
2022-12-27T21:50:45.449Z,4.54
2022-12-27T21:53:21.112Z,4.52
2022-12-27T22:06:34.100Z,4.50
2022-12-27T22:09:11.021Z,4.50
2022-12-27T22:11:51.163Z,4.50
2022-12-27T22:14:25.704Z,4.48
2022-12-27T22:17:00.114Z,4.48
2022-12-27T22:19:33.423Z,4.47
2022-12-27T22:32:24.126Z,4.47
2022-12-27T22:35:04.104Z,4.44
2022-12-27T22:37:37.285Z,4.45
2022-12-27T22:40:30.722Z,4.44
2022-12-27T22:43:04.764Z,4.41
2022-12-27T22:45:38.089Z,4.40
2022-12-27T22:58:50.148Z,4.40
2022-12-27T23:01:29.592Z,4.39
2022-12-27T23:04:13.300Z,4.40
2022-12-27T23:06:46.467Z,4.42
2022-12-27T23:09:20.065Z,4.42
2022-12-27T23:11:53.372Z,4.44
2022-12-27T23:14:29.069Z,4.47
2022-12-27T23:25:02.200Z,4.44
2022-12-27T23:27:43.008Z,4.44
2022-12-27T23:30:18.539Z,4.37
2022-12-27T23:32:52.098Z,4.36
2022-12-27T23:35:25.370Z,4.36
2022-12-27T23:37:59.084Z,4.36
2022-12-27T23:40:33.227Z,4.33
2022-12-27T23:53:23.093Z,4.36
2022-12-27T23:56:04.073Z,4.42
2022-12-27T23:58:37.317Z,4.45
